createdAt,value
2019-05-18T00:00:57.022Z,96.78
2019-05-18T00:01:56.893Z,97.19
2019-05-18T00:02:56.876Z,97.19
2019-05-18T00:03:56.865Z,97.24
2019-05-18T00:04:56.971Z,97.40
2019-05-18T00:05:56.905Z,97.19
2019-05-18T00:06:56.928Z,97.30
2019-05-18T00:07:56.880Z,97.09
2019-05-18T00:08:56.815Z,97.44
2019-05-18T00:09:56.797Z,97.55
2019-05-18T00:10:56.861Z,97.86
2019-05-18T00:11:56.795Z,97.14
2019-05-18T00:12:56.918Z,97.34
2019-05-18T00:13:56.749Z,97.86
2019-05-18T00:14:56.746Z,97.55
2019-05-18T00:15:56.732Z,97.55
2019-05-18T00:16:56.790Z,97.69
2019-05-18T00:17:56.765Z,97.08
2019-05-18T00:18:56.829Z,97.39
2019-05-18T00:19:56.702Z,97.08
2019-05-18T00:20:56.731Z,97.80
2019-05-18T00:21:56.740Z,97.74
2019-05-18T00:22:56.661Z,97.80
2019-05-18T00:23:56.736Z,97.85
2019-05-18T00:24:56.675Z,97.95
2019-05-18T00:25:57.075Z,97.74
2019-05-18T00:26:56.623Z,98.67
2019-05-18T00:27:57.693Z,98.57
2019-05-18T00:28:56.600Z,98.25
2019-05-18T00:29:56.732Z,98.67
2019-05-18T00:30:56.600Z,98.57
2019-05-18T00:31:56.580Z,98.05
2019-05-18T00:32:56.595Z,98.82
2019-05-18T00:33:56.601Z,99.23
2019-05-18T00:34:56.541Z,98.61
2019-05-18T00:35:56.618Z,99.02
2019-05-18T00:36:56.512Z,98.77
2019-05-18T00:37:56.582Z,99.23
2019-05-18T00:38:56.534Z,99.02
2019-05-18T00:39:56.550Z,99.02
2019-05-18T00:40:56.545Z,99.02
2019-05-18T00:41:56.465Z,99.02
2019-05-18T00:42:56.617Z,98.82
2019-05-18T00:43:56.472Z,98.71
2019-05-18T00:44:56.538Z,99.02
2019-05-18T00:45:56.424Z,98.82
2019-05-18T00:46:56.482Z,98.92
2019-05-18T00:47:56.457Z,99.07
2019-05-18T00:48:56.432Z,98.86
2019-05-18T00:49:56.438Z,99.07
2019-05-18T00:50:56.413Z,98.86
2019-05-18T00:51:56.379Z,98.76
2019-05-18T00:52:56.427Z,99.38
2019-05-18T00:53:56.343Z,99.27
2019-05-18T00:54:56.372Z,98.55
2019-05-18T00:55:56.316Z,99.22
2019-05-18T00:56:56.405Z,99.11
2019-05-18T00:57:56.385Z,98.91
2019-05-18T00:58:56.378Z,99.01
2019-05-18T00:59:56.284Z,98.80
2019-05-18T01:00:56.268Z,99.63
2019-05-18T01:01:56.386Z,99.01
2019-05-18T01:02:56.273Z,99.52
2019-05-18T01:03:56.309Z,99.73
2019-05-18T01:04:56.227Z,99.73
2019-05-18T01:05:56.363Z,99.73
2019-05-18T01:06:56.247Z,99.52
2019-05-18T01:07:57.246Z,99.63
2019-05-18T01:08:56.194Z,99.84
2019-05-18T01:09:56.267Z,99.99
2019-05-18T01:10:56.215Z,99.99
2019-05-18T01:11:56.161Z,99.99
2019-05-18T01:12:56.195Z,99.78
2019-05-18T01:13:56.178Z,99.78
2019-05-18T01:14:56.128Z,99.88
2019-05-18T01:15:56.230Z,99.78
2019-05-18T01:16:56.105Z,99.99
2019-05-18T01:17:57.799Z,99.68
2019-05-18T01:18:56.081Z,99.82
2019-05-18T01:19:56.120Z,99.88
2019-05-18T01:20:56.125Z,99.62
2019-05-18T01:21:56.118Z,99.99
2019-05-18T01:22:56.057Z,99.88
2019-05-18T01:23:56.081Z,99.99
2019-05-18T01:24:56.036Z,99.99
2019-05-18T01:25:56.093Z,99.99
2019-05-18T01:26:56.048Z,99.99
2019-05-18T01:27:55.989Z,99.99
2019-05-18T01:28:56.046Z,99.99
2019-05-18T01:29:55.967Z,99.99
2019-05-18T01:30:56.030Z,99.99
2019-05-18T01:31:55.942Z,99.99
2019-05-18T01:32:55.994Z,99.99
2019-05-18T01:33:55.945Z,99.99
2019-05-18T01:34:55.915Z,99.99
2019-05-18T01:35:55.958Z,99.99
2019-05-18T01:36:55.910Z,99.99
2019-05-18T01:37:55.886Z,99.99
2019-05-18T01:38:56.028Z,99.99
2019-05-18T01:39:55.863Z,99.99
2019-05-18T01:40:55.852Z,99.99
2019-05-18T01:41:55.871Z,99.99
2019-05-18T01:42:55.852Z,99.99
2019-05-18T01:43:55.862Z,99.99
2019-05-18T01:44:55.866Z,99.99
2019-05-18T01:45:55.801Z,99.99
2019-05-18T01:46:55.809Z,99.99
2019-05-18T01:47:55.864Z,99.99
2019-05-18T01:48:55.807Z,99.99
2019-05-18T01:49:55.797Z,99.99
2019-05-18T01:50:55.750Z,99.99
2019-05-18T01:51:55.808Z,99.99
2019-05-18T01:52:55.778Z,99.99
2019-05-18T01:53:55.826Z,99.99
2019-05-18T01:54:55.711Z,99.99
2019-05-18T01:55:55.782Z,99.99
2019-05-18T01:56:55.684Z,99.99
2019-05-18T01:57:55.714Z,99.99
2019-05-18T01:58:55.665Z,99.99
2019-05-18T01:59:55.764Z,99.99
2019-05-18T02:00:55.641Z,99.99
2019-05-18T02:01:55.689Z,99.99
2019-05-18T02:02:55.660Z,99.99
2019-05-18T02:03:55.613Z,99.99
2019-05-18T02:04:55.643Z,99.99
2019-05-18T02:05:55.603Z,99.99
2019-05-18T02:06:55.582Z,99.99
2019-05-18T02:07:55.628Z,99.99
2019-05-18T02:08:55.564Z,99.99
2019-05-18T02:09:55.585Z,99.99
2019-05-18T02:10:55.633Z,99.99
2019-05-18T02:11:55.561Z,99.99
2019-05-18T02:12:55.544Z,99.99
2019-05-18T02:13:55.503Z,99.99
2019-05-18T02:14:55.653Z,99.99
2019-05-18T02:15:55.494Z,99.99
2019-05-18T02:16:55.573Z,99.99
2019-05-18T02:17:55.503Z,99.99
2019-05-18T02:18:55.498Z,99.99
2019-05-18T02:19:55.441Z,99.99
2019-05-18T02:20:55.454Z,99.99
2019-05-18T02:21:55.416Z,99.99
2019-05-18T02:22:55.485Z,99.99
2019-05-18T02:23:55.452Z,99.99
2019-05-18T02:24:55.427Z,99.99
2019-05-18T02:25:55.379Z,99.99
2019-05-18T02:26:55.411Z,99.99
2019-05-18T02:27:55.443Z,99.99
2019-05-18T02:28:55.404Z,99.99
2019-05-18T02:29:55.376Z,99.99
2019-05-18T02:30:55.343Z,99.99
2019-05-18T02:31:55.389Z,99.99
2019-05-18T02:32:55.316Z,99.99
2019-05-18T02:33:55.455Z,99.99
2019-05-18T02:34:55.302Z,99.99
2019-05-18T02:35:55.309Z,99.99
2019-05-18T02:36:55.285Z,99.99
2019-05-18T02:37:55.368Z,99.99
2019-05-18T02:38:55.271Z,99.99
2019-05-18T02:39:55.338Z,99.99
2019-05-18T02:40:55.223Z,99.99
2019-05-18T02:41:55.242Z,99.99
2019-05-18T02:42:55.261Z,99.99
2019-05-18T02:43:55.217Z,99.99
2019-05-18T02:44:55.225Z,99.99
2019-05-18T02:45:55.276Z,99.99
2019-05-18T02:46:55.170Z,99.99
2019-05-18T02:47:55.249Z,99.99
2019-05-18T02:48:55.136Z,99.99
2019-05-18T02:49:55.147Z,99.99
2019-05-18T02:50:55.115Z,99.99
2019-05-18T02:51:55.229Z,99.99
2019-05-18T02:52:55.131Z,99.99
2019-05-18T02:53:55.150Z,99.99
2019-05-18T02:54:55.083Z,99.99
2019-05-18T02:55:55.064Z,99.99
2019-05-18T02:56:55.608Z,99.99
2019-05-18T02:57:55.119Z,99.99
2019-05-18T02:58:55.162Z,99.99
2019-05-18T02:59:55.018Z,99.99
2019-05-18T03:00:55.060Z,99.99
2019-05-18T03:01:55.005Z,99.99
2019-05-18T03:02:55.180Z,99.99
2019-05-18T03:03:55.001Z,99.99
2019-05-18T03:04:55.117Z,99.99
2019-05-18T03:05:55.009Z,99.99
2019-05-18T03:06:54.961Z,99.99
2019-05-18T03:07:54.988Z,99.99
2019-05-18T03:08:56.006Z,99.99
2019-05-18T03:09:54.933Z,99.99
2019-05-18T03:10:54.930Z,99.99
2019-05-18T03:11:54.928Z,99.99
2019-05-18T03:12:54.943Z,99.99
2019-05-18T03:13:54.896Z,99.99
2019-05-18T03:14:54.998Z,99.99
2019-05-18T03:15:54.872Z,99.99
2019-05-18T03:16:54.903Z,99.99
2019-05-18T03:17:54.880Z,99.99
2019-05-18T03:19:07.342Z,99.99
2019-05-18T03:19:55.818Z,99.99
2019-05-18T03:20:54.933Z,99.99
2019-05-18T03:21:54.796Z,99.99
2019-05-18T03:22:54.908Z,99.99
2019-05-18T03:23:54.777Z,99.99
2019-05-18T03:24:54.860Z,99.99
2019-05-18T03:25:54.753Z,99.99
2019-05-18T03:26:54.871Z,99.99
2019-05-18T03:27:54.798Z,99.99
2019-05-18T03:28:54.829Z,99.99
2019-05-18T03:29:54.767Z,99.99
2019-05-18T03:30:54.744Z,99.99
2019-05-18T03:31:54.804Z,99.99
2019-05-18T03:32:54.705Z,99.99
2019-05-18T03:33:54.759Z,99.99
2019-05-18T03:34:54.741Z,99.99
2019-05-18T03:35:54.676Z,99.99
2019-05-18T03:36:54.638Z,99.99
2019-05-18T03:37:54.801Z,99.99
2019-05-18T03:38:54.675Z,99.99
2019-05-18T03:39:54.736Z,99.99
2019-05-18T03:40:54.599Z,99.99
2019-05-18T03:41:54.582Z,99.99
2019-05-18T03:42:54.766Z,99.99
2019-05-18T03:43:54.559Z,99.99
2019-05-18T03:44:54.629Z,99.99
2019-05-18T03:45:54.577Z,99.99
2019-05-18T03:46:55.618Z,99.99
2019-05-18T03:47:54.543Z,99.99
2019-05-18T03:48:54.592Z,99.99
2019-05-18T03:49:54.565Z,99.99
2019-05-18T03:50:55.527Z,99.99
2019-05-18T03:51:54.481Z,99.99
2019-05-18T03:52:54.469Z,99.99
2019-05-18T03:53:54.513Z,99.99
2019-05-18T03:54:55.613Z,99.99
2019-05-18T03:55:54.451Z,99.99
2019-05-18T03:56:54.527Z,99.99
2019-05-18T03:57:54.428Z,99.99
2019-05-18T03:58:54.468Z,99.99
2019-05-18T03:59:54.417Z,99.99
2019-05-18T04:00:54.466Z,99.99
2019-05-18T04:01:54.371Z,99.99
2019-05-18T04:02:54.506Z,99.99
2019-05-18T04:03:54.406Z,99.99
2019-05-18T04:04:54.362Z,99.99
2019-05-18T04:05:54.388Z,99.99
2019-05-18T04:06:54.330Z,99.99
2019-05-18T04:07:54.416Z,99.99
2019-05-18T04:08:54.350Z,99.99
2019-05-18T04:09:54.311Z,99.99
2019-05-18T04:10:54.295Z,99.99
2019-05-18T04:11:54.337Z,99.99
2019-05-18T04:12:54.337Z,99.99
2019-05-18T04:13:54.334Z,99.99
2019-05-18T04:14:54.319Z,99.99
2019-05-18T04:15:54.228Z,99.99
2019-05-18T04:16:54.301Z,99.99
2019-05-18T04:17:54.258Z,99.99
2019-05-18T04:18:54.244Z,99.99
2019-05-18T04:19:54.295Z,99.99
2019-05-18T04:20:54.203Z,99.99
2019-05-18T04:21:54.253Z,99.99
2019-05-18T04:22:54.236Z,99.99
2019-05-18T04:23:54.181Z,99.99
2019-05-18T04:24:55.232Z,99.99
2019-05-18T04:25:54.130Z,99.99
2019-05-18T04:26:54.183Z,99.99
2019-05-18T04:27:54.104Z,99.99
2019-05-18T04:28:54.141Z,99.99
2019-05-18T04:29:54.087Z,99.99
2019-05-18T04:30:54.221Z,99.99
2019-05-18T04:31:54.129Z,99.99
2019-05-18T04:32:54.154Z,99.99
2019-05-18T04:33:55.099Z,99.99
2019-05-18T04:34:54.031Z,99.99
2019-05-18T04:35:54.225Z,99.99
2019-05-18T04:36:54.068Z,99.99
2019-05-18T04:37:54.090Z,99.99
2019-05-18T04:38:54.186Z,99.99
2019-05-18T04:39:53.988Z,99.99
2019-05-18T04:40:54.011Z,99.99
2019-05-18T04:41:54.012Z,99.99
2019-05-18T04:42:54.071Z,99.99
2019-05-18T04:43:54.955Z,99.99
2019-05-18T04:44:53.919Z,99.99
2019-05-18T04:45:53.942Z,99.99
2019-05-18T04:46:53.909Z,99.99
2019-05-18T04:47:54.046Z,99.99
2019-05-18T04:48:53.918Z,99.99
2019-05-18T04:50:04.722Z,99.99
2019-05-18T04:50:54.915Z,99.99
2019-05-18T04:51:53.864Z,99.99
2019-05-18T04:52:54.078Z,99.99
2019-05-18T04:53:53.850Z,99.99
2019-05-18T04:54:54.043Z,99.99
2019-05-18T04:55:53.870Z,99.99
2019-05-18T04:56:54.060Z,99.99
2019-05-18T04:57:53.844Z,99.99
2019-05-18T04:58:53.933Z,99.99
2019-05-18T04:59:53.767Z,99.99
2019-05-18T05:00:53.778Z,99.99
2019-05-18T05:01:53.792Z,99.99
2019-05-18T05:02:53.966Z,99.99
2019-05-18T05:03:53.740Z,99.99
2019-05-18T05:04:56.590Z,99.99
2019-05-18T05:05:53.780Z,99.99
2019-05-18T05:06:53.686Z,99.99
2019-05-18T05:07:53.897Z,99.99
2019-05-18T05:08:53.693Z,99.99
2019-05-18T05:09:53.808Z,99.99
2019-05-18T05:10:53.691Z,99.99
2019-05-18T05:11:53.832Z,99.99
2019-05-18T05:12:53.719Z,99.99
2019-05-18T05:13:53.856Z,99.99
2019-05-18T05:14:53.663Z,99.99
2019-05-18T05:15:53.759Z,99.99
2019-05-18T05:16:53.581Z,99.99
2019-05-18T05:17:53.645Z,99.99
2019-05-18T05:18:53.588Z,99.99
2019-05-18T05:19:53.737Z,99.99
2019-05-18T05:20:53.549Z,99.99
2019-05-18T05:21:53.682Z,99.99
2019-05-18T05:22:53.585Z,99.99
2019-05-18T05:23:53.518Z,99.99
2019-05-18T05:24:53.701Z,99.99
2019-05-18T05:25:53.491Z,99.99
2019-05-18T05:26:53.625Z,99.99
2019-05-18T05:27:53.526Z,99.99
2019-05-18T05:28:53.632Z,99.99
2019-05-18T05:29:53.452Z,99.99
2019-05-18T05:30:53.697Z,99.99
2019-05-18T05:31:53.455Z,99.99
2019-05-18T05:32:53.551Z,99.99
2019-05-18T05:33:53.439Z,99.99
2019-05-18T05:34:53.578Z,99.99
2019-05-18T05:35:53.424Z,99.99
2019-05-18T05:36:54.518Z,99.99
2019-05-18T05:37:53.382Z,99.99
2019-05-18T05:38:53.522Z,99.99
2019-05-18T05:39:53.343Z,99.99
2019-05-18T05:40:53.602Z,99.99
2019-05-18T05:41:53.324Z,99.99
2019-05-18T05:42:53.520Z,99.99
2019-05-18T05:43:53.344Z,99.99
2019-05-18T05:44:53.424Z,99.99
2019-05-18T05:45:54.009Z,99.99
2019-05-18T05:46:53.273Z,99.99
2019-05-18T05:47:53.265Z,99.99
2019-05-18T05:48:53.443Z,99.99
2019-05-18T05:49:53.244Z,99.99
2019-05-18T05:50:53.380Z,99.99
2019-05-18T05:51:53.213Z,99.99
2019-05-18T05:52:53.228Z,99.99
2019-05-18T05:53:53.267Z,99.99
2019-05-18T05:54:53.303Z,99.99
2019-05-18T05:55:53.177Z,99.99
2019-05-18T05:56:53.341Z,99.99
2019-05-18T05:57:53.181Z,99.82
2019-05-18T05:58:53.183Z,99.87
2019-05-18T05:59:53.343Z,99.36
2019-05-18T06:00:53.137Z,98.60
2019-05-18T06:01:53.243Z,98.33
2019-05-18T06:02:53.102Z,97.67
2019-05-18T06:03:53.300Z,96.86
2019-05-18T06:04:53.088Z,96.75
2019-05-18T06:05:53.282Z,96.75
2019-05-18T06:06:53.068Z,96.87
2019-05-18T06:07:53.220Z,95.28
2019-05-18T06:08:53.082Z,95.13
2019-05-18T06:09:53.031Z,95.34
2019-05-18T06:10:53.051Z,95.29
2019-05-18T06:11:53.200Z,95.29
2019-05-18T06:12:53.085Z,94.89
2019-05-18T06:13:54.128Z,94.33
2019-05-18T06:14:52.982Z,94.43
2019-05-18T06:15:52.994Z,94.33
2019-05-18T06:16:53.010Z,93.62
2019-05-18T06:17:53.139Z,94.53
2019-05-18T06:18:52.929Z,94.29
2019-05-18T06:19:55.121Z,93.67
2019-05-18T06:20:52.923Z,93.84
2019-05-18T06:21:53.137Z,94.34
2019-05-18T06:22:52.923Z,93.32
2019-05-18T06:23:53.071Z,93.12
2019-05-18T06:24:52.880Z,92.50
2019-05-18T06:25:53.636Z,92.50
2019-05-18T06:26:54.075Z,91.44
2019-05-18T06:27:52.856Z,89.40
2019-05-18T06:28:53.064Z,89.20
2019-05-18T06:29:52.862Z,89.10
2019-05-18T06:30:52.919Z,88.24
2019-05-18T06:31:52.856Z,88.45
2019-05-18T06:32:52.792Z,86.06
2019-05-18T06:33:52.802Z,85.05
2019-05-18T06:34:52.994Z,85.35
2019-05-18T06:35:52.760Z,85.41
2019-05-18T06:36:55.805Z,85.61
2019-05-18T06:37:52.741Z,85.41
2019-05-18T06:38:52.870Z,85.58
2019-05-18T06:39:52.757Z,85.11
2019-05-18T06:40:52.814Z,84.05
2019-05-18T06:41:52.713Z,83.74
2019-05-18T06:42:53.875Z,83.23
2019-05-18T06:43:52.785Z,83.09
2019-05-18T06:44:52.728Z,82.79
2019-05-18T06:45:52.741Z,83.09
2019-05-18T06:46:52.642Z,82.89
2019-05-18T06:47:52.872Z,82.48
2019-05-18T06:48:52.698Z,82.99
2019-05-18T06:49:52.616Z,82.99
2019-05-18T06:51:06.319Z,83.09
2019-05-18T06:51:53.583Z,82.68
2019-05-18T06:52:52.797Z,82.14
2019-05-18T06:53:52.631Z,82.14
2019-05-18T06:54:52.609Z,82.34
2019-05-18T06:55:52.547Z,80.21
2019-05-18T06:56:52.599Z,79.97
2019-05-18T06:57:52.529Z,80.27
2019-05-18T06:58:52.612Z,79.46
2019-05-18T06:59:52.575Z,79.02
2019-05-18T07:00:52.505Z,78.10
2019-05-18T07:01:52.553Z,77.80
2019-05-18T07:02:52.685Z,78.17
2019-05-18T07:03:52.487Z,77.76
2019-05-18T07:04:52.695Z,77.19
2019-05-18T07:05:52.480Z,77.86
2019-05-18T07:06:53.618Z,78.06
2019-05-18T07:07:52.418Z,78.06
2019-05-18T07:08:53.604Z,78.03
2019-05-18T07:09:52.468Z,78.57
2019-05-18T07:10:52.493Z,78.64
2019-05-18T07:11:56.008Z,78.13
2019-05-18T07:12:52.418Z,77.42
2019-05-18T07:13:52.496Z,78.03
2019-05-18T07:14:52.386Z,78.23
2019-05-18T07:15:52.441Z,77.32
2019-05-18T07:16:52.371Z,75.35
2019-05-18T07:17:52.415Z,76.00
2019-05-18T07:18:52.335Z,75.56
2019-05-18T07:19:52.427Z,75.76
2019-05-18T07:20:52.285Z,75.86
2019-05-18T07:21:52.418Z,75.86
2019-05-18T07:22:52.470Z,75.25
2019-05-18T07:23:52.251Z,74.65
2019-05-18T07:24:52.355Z,74.61
2019-05-18T07:25:52.277Z,74.71
2019-05-18T07:26:52.401Z,74.71
2019-05-18T07:27:52.246Z,74.91
2019-05-18T07:28:52.196Z,74.10
2019-05-18T07:29:52.293Z,74.10
2019-05-18T07:30:52.196Z,74.00
2019-05-18T07:31:52.299Z,74.10
2019-05-18T07:32:52.210Z,73.76
2019-05-18T07:33:52.141Z,74.17
2019-05-18T07:34:52.155Z,73.05
2019-05-18T07:35:52.219Z,73.36
2019-05-18T07:36:52.158Z,73.76
2019-05-18T07:37:52.230Z,73.36
2019-05-18T07:38:52.096Z,72.72
2019-05-18T07:39:52.079Z,73.73
2019-05-18T07:40:52.199Z,74.24
2019-05-18T07:41:52.130Z,73.73
2019-05-18T07:42:52.167Z,74.74
2019-05-18T07:43:52.055Z,75.15
2019-05-18T07:44:52.183Z,76.16
2019-05-18T07:45:52.031Z,75.35
2019-05-18T07:46:52.276Z,75.52
2019-05-18T07:47:51.998Z,74.30
2019-05-18T07:48:52.057Z,74.51
2019-05-18T07:49:51.986Z,75.07
2019-05-18T07:50:51.997Z,74.47
2019-05-18T07:51:52.077Z,73.56
2019-05-18T07:52:52.000Z,73.46
2019-05-18T07:53:52.080Z,73.25
2019-05-18T07:54:51.977Z,73.66
2019-05-18T07:55:52.052Z,73.56
2019-05-18T07:56:51.949Z,74.27
2019-05-18T07:57:52.006Z,74.37
2019-05-18T07:58:51.903Z,74.13
2019-05-18T07:59:51.996Z,74.54
2019-05-18T08:00:51.914Z,73.08
2019-05-18T08:01:51.884Z,72.88
2019-05-18T08:02:51.883Z,73.49
2019-05-18T08:03:52.018Z,73.19
2019-05-18T08:04:51.871Z,72.38
2019-05-18T08:05:51.914Z,72.38
2019-05-18T08:06:51.808Z,72.58
2019-05-18T08:07:51.806Z,71.94
2019-05-18T08:08:51.794Z,72.08
2019-05-18T08:09:51.897Z,72.68
2019-05-18T08:10:51.761Z,73.46
2019-05-18T08:11:51.851Z,72.24
2019-05-18T08:12:51.789Z,71.33
2019-05-18T08:13:51.896Z,70.93
2019-05-18T08:14:51.718Z,69.51
2019-05-18T08:15:51.884Z,70.53
2019-05-18T08:16:51.735Z,71.33
2019-05-18T08:17:51.839Z,71.13
2019-05-18T08:18:51.794Z,70.89
2019-05-18T08:19:51.681Z,69.78
2019-05-18T08:20:51.741Z,70.19
2019-05-18T08:21:53.606Z,69.48
2019-05-18T08:22:51.783Z,68.44
2019-05-18T08:23:51.620Z,68.84
2019-05-18T08:24:51.628Z,68.33
2019-05-18T08:25:51.773Z,69.15
2019-05-18T08:26:51.645Z,67.83
2019-05-18T08:27:51.646Z,68.24
2019-05-18T08:28:51.577Z,68.04
2019-05-18T08:29:51.570Z,68.64
2019-05-18T08:30:51.544Z,68.44
2019-05-18T08:31:51.758Z,67.73
2019-05-18T08:32:51.520Z,68.33
2019-05-18T08:33:51.690Z,67.93
2019-05-18T08:34:51.548Z,69.45
2019-05-18T08:35:51.563Z,68.21
2019-05-18T08:36:51.492Z,68.17
2019-05-18T08:37:52.658Z,68.27
2019-05-18T08:38:51.525Z,67.97
2019-05-18T08:39:53.575Z,67.47
2019-05-18T08:40:51.441Z,65.45
2019-05-18T08:41:51.432Z,65.01
2019-05-18T08:42:52.523Z,65.65
2019-05-18T08:43:51.468Z,66.42
2019-05-18T08:44:51.558Z,66.33
2019-05-18T08:45:51.382Z,66.02
2019-05-18T08:46:51.378Z,64.58
2019-05-18T08:47:51.403Z,65.09
2019-05-18T08:48:51.484Z,63.87
2019-05-18T08:49:51.382Z,64.78
2019-05-18T08:50:51.496Z,62.94
2019-05-18T08:51:51.338Z,62.74
2019-05-18T08:52:51.353Z,62.24
2019-05-18T08:53:51.318Z,63.14
2019-05-18T08:54:51.478Z,62.64
2019-05-18T08:55:51.327Z,62.84
2019-05-18T08:56:51.313Z,64.42
2019-05-18T08:57:51.253Z,63.92
2019-05-18T08:58:51.345Z,63.01
2019-05-18T08:59:51.279Z,63.31
2019-05-18T09:00:51.363Z,62.10
2019-05-18T09:01:51.271Z,62.48
2019-05-18T09:02:51.268Z,62.78
2019-05-18T09:03:51.278Z,62.98
2019-05-18T09:04:51.244Z,62.95
2019-05-18T09:05:51.288Z,62.85
2019-05-18T09:06:51.165Z,61.94
2019-05-18T09:07:51.349Z,61.34
2019-05-18T09:08:51.137Z,62.05
2019-05-18T09:09:51.172Z,60.94
2019-05-18T09:10:51.285Z,59.91
2019-05-18T09:11:51.103Z,58.70
2019-05-18T09:12:52.130Z,58.50
2019-05-18T09:13:51.109Z,60.61
2019-05-18T09:14:51.144Z,60.61
2019-05-18T09:15:51.105Z,60.88
2019-05-18T09:16:51.110Z,59.47
2019-05-18T09:17:51.047Z,59.27
2019-05-18T09:18:51.172Z,60.08
2019-05-18T09:19:51.040Z,59.98
2019-05-18T09:20:51.055Z,60.05
2019-05-18T09:21:50.993Z,57.84
2019-05-18T09:22:52.134Z,57.94
2019-05-18T09:23:50.984Z,58.24
2019-05-18T09:24:53.069Z,58.44
2019-05-18T09:25:51.002Z,57.71
2019-05-18T09:26:51.006Z,56.81
2019-05-18T09:27:51.067Z,56.13
2019-05-18T09:28:50.947Z,56.23
2019-05-18T09:29:52.079Z,56.74
2019-05-18T09:30:50.960Z,56.54
2019-05-18T09:31:50.912Z,56.71
2019-05-18T09:32:50.934Z,56.51
2019-05-18T09:33:50.987Z,56.30
2019-05-18T09:34:50.880Z,56.91
2019-05-18T09:35:50.991Z,57.18
2019-05-18T09:36:50.885Z,56.48
2019-05-18T09:37:50.833Z,57.96
2019-05-18T09:38:50.900Z,58.66
2019-05-18T09:39:50.913Z,56.43
2019-05-18T09:40:50.869Z,55.13
2019-05-18T09:41:50.841Z,54.52
2019-05-18T09:42:50.936Z,55.00
2019-05-18T09:43:50.776Z,55.90
2019-05-18T09:44:50.845Z,56.60
2019-05-18T09:45:50.776Z,53.27
2019-05-18T09:46:50.906Z,52.07
2019-05-18T09:47:50.745Z,52.17
2019-05-18T09:48:50.723Z,53.57
2019-05-18T09:49:50.717Z,53.24
2019-05-18T09:50:50.743Z,52.14
2019-05-18T09:51:50.740Z,50.94
2019-05-18T09:52:50.854Z,50.96
2019-05-18T09:53:52.005Z,53.57
2019-05-18T09:54:50.662Z,51.87
2019-05-18T09:55:50.707Z,52.17
2019-05-18T09:56:51.543Z,51.79
2019-05-18T09:57:50.784Z,50.57
2019-05-18T09:58:50.623Z,50.79
2019-05-18T09:59:50.638Z,52.69
2019-05-18T10:00:50.596Z,51.46
2019-05-18T10:01:50.600Z,52.37
2019-05-18T10:02:50.626Z,52.57
2019-05-18T10:03:50.654Z,52.34
2019-05-18T10:04:50.552Z,53.05
2019-05-18T10:05:50.560Z,49.34
2019-05-18T10:06:50.631Z,49.24
2019-05-18T10:07:50.569Z,50.94
2019-05-18T10:08:52.592Z,49.04
2019-05-18T10:09:50.504Z,49.04
2019-05-18T10:10:50.582Z,49.37
2019-05-18T10:11:50.517Z,50.46
2019-05-18T10:12:50.530Z,48.96
2019-05-18T10:13:51.521Z,48.86
2019-05-18T10:14:50.487Z,50.89
2019-05-18T10:15:50.435Z,52.67
2019-05-18T10:16:50.472Z,50.16
2019-05-18T10:17:50.482Z,51.37
2019-05-18T10:18:50.514Z,50.79
2019-05-18T10:19:50.403Z,49.26
2019-05-18T10:20:50.441Z,50.16
2019-05-18T10:21:50.379Z,52.37
2019-05-18T10:22:59.237Z,51.07
2019-05-18T10:23:51.356Z,50.24
2019-05-18T10:24:50.486Z,49.24
2019-05-18T10:25:50.340Z,48.94
2019-05-18T10:26:50.382Z,49.24
2019-05-18T10:27:50.436Z,49.41
2019-05-18T10:28:50.325Z,49.11
2019-05-18T10:29:50.388Z,49.62
2019-05-18T10:30:50.307Z,49.32
2019-05-18T10:31:50.361Z,48.61
2019-05-18T10:32:50.264Z,49.41
2019-05-18T10:33:50.254Z,50.12
2019-05-18T10:34:50.332Z,48.72
2019-05-18T10:35:50.239Z,48.92
2019-05-18T10:36:50.312Z,51.42
2019-05-18T10:37:50.223Z,49.02
2019-05-18T10:38:50.210Z,49.52
2019-05-18T10:39:50.193Z,48.79
2019-05-18T10:40:50.276Z,48.19
2019-05-18T10:41:50.214Z,48.99
2019-05-18T10:42:50.305Z,50.70
2019-05-18T10:43:50.162Z,49.29
2019-05-18T10:44:50.139Z,49.49
2019-05-18T10:45:50.151Z,49.99
2019-05-18T10:46:50.286Z,47.49
2019-05-18T10:47:50.114Z,48.49
2019-05-18T10:48:51.135Z,49.19
2019-05-18T10:49:50.082Z,50.39
2019-05-18T10:50:50.083Z,51.17
2019-05-18T10:51:50.215Z,49.07
2019-05-18T10:52:50.074Z,50.37
2019-05-18T10:53:50.178Z,49.44
2019-05-18T10:54:50.040Z,48.94
2019-05-18T10:55:50.023Z,49.32
2019-05-18T10:56:50.082Z,48.63
2019-05-18T10:57:51.015Z,47.22
2019-05-18T10:58:50.075Z,47.40
2019-05-18T10:59:52.667Z,48.82
2019-05-18T11:00:49.986Z,48.28
2019-05-18T11:01:49.962Z,47.66
2019-05-18T11:02:50.079Z,46.64
2019-05-18T11:03:50.027Z,44.50
2019-05-18T11:04:49.993Z,44.24
2019-05-18T11:05:50.047Z,43.50
2019-05-18T11:06:49.931Z,41.36
2019-05-18T11:07:49.932Z,40.26
2019-05-18T11:08:49.889Z,40.28
2019-05-18T11:09:50.012Z,38.30
2019-05-18T11:10:49.898Z,40.12
2019-05-18T11:11:49.983Z,41.34
2019-05-18T11:12:50.003Z,43.19
2019-05-18T11:13:49.846Z,43.08
2019-05-18T11:14:50.986Z,44.04
2019-05-18T11:15:49.820Z,42.99
2019-05-18T11:16:49.914Z,41.33
2019-05-18T11:17:49.803Z,41.99
2019-05-18T11:18:49.927Z,40.84
2019-05-18T11:19:49.862Z,40.50
2019-05-18T11:20:49.816Z,37.19
2019-05-18T11:21:49.770Z,35.99
2019-05-18T11:22:49.853Z,36.04
2019-05-18T11:23:49.837Z,35.23
2019-05-18T11:24:49.802Z,34.54
2019-05-18T11:25:49.805Z,32.70
2019-05-18T11:26:49.773Z,33.54
2019-05-18T11:27:49.871Z,35.05
2019-05-18T11:28:49.698Z,37.66
2019-05-18T11:29:49.683Z,37.49
2019-05-18T11:30:49.765Z,34.73
2019-05-18T11:31:49.714Z,35.70
2019-05-18T11:32:49.734Z,36.31
2019-05-18T11:33:49.650Z,36.16
2019-05-18T11:34:49.632Z,37.21
2019-05-18T11:35:49.669Z,38.30
2019-05-18T11:36:49.751Z,40.86
2019-05-18T11:37:49.608Z,39.34
2019-05-18T11:38:49.670Z,38.88
2019-05-18T11:39:49.593Z,36.25
2019-05-18T11:40:49.618Z,33.51
2019-05-18T11:41:49.566Z,35.89
2019-05-18T11:42:50.602Z,36.39
2019-05-18T11:43:49.552Z,36.75
2019-05-18T11:44:49.612Z,34.76
2019-05-18T11:45:49.664Z,33.85
2019-05-18T11:46:49.665Z,34.71
2019-05-18T11:47:49.508Z,34.46
2019-05-18T11:48:49.618Z,35.61
2019-05-18T11:49:49.515Z,32.81
2019-05-18T11:50:49.614Z,31.79
2019-05-18T11:51:49.524Z,30.98
2019-05-18T11:52:49.458Z,30.19
2019-05-18T11:53:57.986Z,29.48
2019-05-18T11:54:50.442Z,31.04
2019-05-18T11:55:49.618Z,31.52
2019-05-18T11:56:49.480Z,30.23
2019-05-18T11:57:49.474Z,31.20
2019-05-18T11:58:49.403Z,30.30
2019-05-18T11:59:49.491Z,27.48
2019-05-18T12:00:49.435Z,26.79
2019-05-18T12:01:49.458Z,27.87
2019-05-18T12:02:49.411Z,28.75
2019-05-18T12:03:50.537Z,28.34
2019-05-18T12:04:51.453Z,26.98
2019-05-18T12:05:49.391Z,25.68
2019-05-18T12:06:49.431Z,26.37
2019-05-18T12:07:49.325Z,26.66
2019-05-18T12:08:49.332Z,26.57
2019-05-18T12:09:49.360Z,26.67
2019-05-18T12:10:49.344Z,27.45
2019-05-18T12:11:49.351Z,27.08
2019-05-18T12:12:49.273Z,26.61
2019-05-18T12:13:49.339Z,28.51
2019-05-18T12:14:49.279Z,29.44
2019-05-18T12:15:49.291Z,30.24
2019-05-18T12:16:49.245Z,29.64
2019-05-18T12:17:49.288Z,29.76
2019-05-18T12:18:49.288Z,28.88
2019-05-18T12:19:49.196Z,29.06
2019-05-18T12:20:49.211Z,28.57
2019-05-18T12:21:49.180Z,29.53
2019-05-18T12:22:50.271Z,30.21
2019-05-18T12:23:49.226Z,29.10
2019-05-18T12:24:49.262Z,28.97
2019-05-18T12:25:50.834Z,27.58
2019-05-18T12:26:49.177Z,26.40
2019-05-18T12:27:49.149Z,27.00
2019-05-18T12:28:49.240Z,27.21
2019-05-18T12:29:49.103Z,26.81
2019-05-18T12:30:49.096Z,27.87
2019-05-18T12:31:49.184Z,26.79
2019-05-18T12:32:49.078Z,26.40
2019-05-18T12:33:49.160Z,26.43
2019-05-18T12:34:49.083Z,26.45
2019-05-18T12:35:49.114Z,27.73
2019-05-18T12:36:49.035Z,26.64
2019-05-18T12:37:49.158Z,27.23
2019-05-18T12:38:49.057Z,26.82
2019-05-18T12:39:50.146Z,26.42
2019-05-18T12:40:49.014Z,27.11
2019-05-18T12:41:49.012Z,26.44
2019-05-18T12:42:49.056Z,26.43
2019-05-18T12:43:49.015Z,26.03
2019-05-18T12:44:49.077Z,26.70
2019-05-18T12:45:48.951Z,28.77
2019-05-18T12:46:49.010Z,28.00
2019-05-18T12:47:48.984Z,28.49
2019-05-18T12:48:50.019Z,28.58
2019-05-18T12:49:48.952Z,28.39
2019-05-18T12:50:49.016Z,28.79
2019-05-18T12:51:48.891Z,28.71
2019-05-18T12:52:48.903Z,29.52